createdAt,value
2018-09-28T00:00:10.226Z,0
2018-09-28T00:03:10.568Z,0
2018-09-28T00:06:10.760Z,0
2018-09-28T00:09:10.969Z,0
2018-09-28T00:12:10.205Z,0
2018-09-28T00:15:10.408Z,0
2018-09-28T00:18:10.633Z,0
2018-09-28T00:21:11.003Z,0
2018-09-28T00:24:10.214Z,0
2018-09-28T00:27:10.690Z,0
2018-09-28T00:30:10.917Z,0
2018-09-28T00:33:10.063Z,0
2018-09-28T00:36:10.242Z,0
2018-09-28T00:39:10.554Z,0
2018-09-28T00:42:10.733Z,0
2018-09-28T00:45:10.874Z,0
2018-09-28T00:48:10.050Z,0
2018-09-28T00:51:10.128Z,0
2018-09-28T00:54:10.244Z,0
2018-09-28T00:57:10.566Z,0
2018-09-28T01:00:10.780Z,0
2018-09-28T01:03:10.105Z,0
2018-09-28T01:06:10.233Z,0
2018-09-28T01:09:10.475Z,0
2018-09-28T01:12:10.603Z,0
2018-09-28T01:15:10.870Z,0
2018-09-28T01:18:10.041Z,0
2018-09-28T01:21:10.315Z,0
2018-09-28T01:24:10.578Z,0
2018-09-28T01:27:10.876Z,0
2018-09-28T01:30:10.198Z,0
2018-09-28T01:33:10.419Z,0
2018-09-28T01:36:10.603Z,0
2018-09-28T01:39:10.875Z,0
2018-09-28T01:42:10.088Z,0
2018-09-28T01:45:10.240Z,0
2018-09-28T01:48:10.485Z,0
2018-09-28T01:51:10.773Z,0
2018-09-28T01:54:10.952Z,0
2018-09-28T01:57:10.165Z,0
2018-09-28T02:00:10.503Z,0
2018-09-28T02:03:10.692Z,0
2018-09-28T02:06:10.933Z,0
2018-09-28T02:09:10.267Z,0
2018-09-28T02:12:10.520Z,0
2018-09-28T02:15:10.801Z,0
2018-09-28T02:18:10.097Z,0
2018-09-28T02:21:10.285Z,0
2018-09-28T02:24:10.509Z,0
2018-09-28T02:27:10.764Z,0
2018-09-28T02:30:10.971Z,0
2018-09-28T02:33:10.233Z,0
2018-09-28T02:36:10.528Z,0
2018-09-28T02:39:10.659Z,0
2018-09-28T02:42:11.084Z,0
2018-09-28T02:45:10.399Z,0
2018-09-28T02:48:10.600Z,0
2018-09-28T02:51:10.831Z,0
2018-09-28T02:54:10.157Z,0
2018-09-28T02:57:10.391Z,0
2018-09-28T03:00:10.644Z,0
2018-09-28T03:03:10.917Z,0
2018-09-28T03:06:10.284Z,0
2018-09-28T03:09:10.761Z,0
2018-09-28T03:12:11.266Z,0
2018-09-28T03:15:10.565Z,0
2018-09-28T03:18:11.036Z,0
2018-09-28T03:21:10.368Z,0
2018-09-28T03:24:10.719Z,0
2018-09-28T03:27:11.132Z,0
2018-09-28T03:30:10.391Z,0
2018-09-28T03:33:10.707Z,0
2018-09-28T03:36:11.119Z,0
2018-09-28T03:39:10.385Z,0
2018-09-28T03:42:10.695Z,0
2018-09-28T03:45:10.882Z,0
2018-09-28T03:48:10.154Z,0
2018-09-28T03:51:10.419Z,0
2018-09-28T03:54:10.729Z,0
2018-09-28T03:57:11.059Z,0
2018-09-28T04:00:10.334Z,0
2018-09-28T04:03:10.876Z,0
2018-09-28T04:06:10.093Z,0
2018-09-28T04:09:10.425Z,0
2018-09-28T04:12:10.864Z,0
2018-09-28T04:15:10.237Z,0
2018-09-28T04:18:10.751Z,0
2018-09-28T04:21:11.074Z,0
2018-09-28T04:24:10.486Z,0
2018-09-28T04:27:10.139Z,0
2018-09-28T04:30:10.558Z,0
2018-09-28T04:33:10.990Z,0
2018-09-28T04:36:11.136Z,0
2018-09-28T04:39:10.421Z,0
2018-09-28T04:42:10.920Z,0
2018-09-28T04:45:10.264Z,0
2018-09-28T04:48:10.732Z,1
2018-09-28T04:51:11.258Z,1
2018-09-28T04:54:10.643Z,1
2018-09-28T04:57:10.979Z,2
2018-09-28T05:00:11.114Z,5
2018-09-28T05:03:10.472Z,8
2018-09-28T05:06:10.869Z,15
2018-09-28T05:09:10.319Z,26
2018-09-28T05:12:10.855Z,41
2018-09-28T05:15:10.270Z,62
2018-09-28T05:18:10.744Z,90
2018-09-28T05:21:11.128Z,124
2018-09-28T05:24:10.521Z,167
2018-09-28T05:27:10.876Z,218
2018-09-28T05:30:10.489Z,274
2018-09-28T05:33:10.685Z,342
2018-09-28T05:36:11.100Z,424
2018-09-28T05:39:10.443Z,522
2018-09-28T05:42:10.913Z,640
2018-09-28T05:45:10.228Z,770
2018-09-28T05:48:10.733Z,914
2018-09-28T05:51:11.061Z,1107
2018-09-28T05:54:10.583Z,1260
2018-09-28T05:57:10.979Z,1404
2018-09-28T06:00:10.468Z,1643
2018-09-28T06:03:10.685Z,1919
2018-09-28T06:06:11.065Z,2350
2018-09-28T06:09:10.396Z,2563
2018-09-28T06:12:10.735Z,2482
2018-09-28T06:15:10.938Z,2436
2018-09-28T06:18:10.262Z,2602
2018-09-28T06:21:10.684Z,2926
2018-09-28T06:24:11.273Z,3077
2018-09-28T06:27:10.590Z,3064
2018-09-28T06:30:11.190Z,3193
2018-09-28T06:33:10.549Z,3347
2018-09-28T06:36:11.161Z,3468
2018-09-28T06:39:10.534Z,3646
2018-09-28T06:42:11.011Z,3733
2018-09-28T06:45:10.375Z,3898
2018-09-28T06:48:10.980Z,3991
2018-09-28T06:51:10.624Z,4109
2018-09-28T06:54:11.258Z,4158
2018-09-28T06:57:10.701Z,4284
2018-09-28T07:00:11.340Z,4417
2018-09-28T07:03:10.761Z,4587
2018-09-28T07:06:11.223Z,7388
2018-09-28T07:09:10.636Z,14426
2018-09-28T07:12:10.958Z,7414
2018-09-28T07:15:10.347Z,5707
2018-09-28T07:18:10.831Z,5384
2018-09-28T07:21:10.233Z,5473
2018-09-28T07:24:10.634Z,5614
2018-09-28T07:27:10.886Z,6010
2018-09-28T07:30:10.454Z,9918
2018-09-28T07:33:10.818Z,8849
2018-09-28T07:36:10.848Z,8016
2018-09-28T07:39:10.235Z,7791
2018-09-28T07:42:15.985Z,6648
2018-09-28T07:45:10.486Z,6850
2018-09-28T07:48:11.010Z,7338
2018-09-28T07:51:10.452Z,7740
2018-09-28T07:54:10.641Z,14682
2018-09-28T07:57:10.902Z,15322
2018-09-28T08:00:10.278Z,22531
2018-09-28T08:03:10.591Z,54612
2018-09-28T08:06:11.039Z,54612
2018-09-28T08:09:10.291Z,54612
2018-09-28T08:12:10.615Z,54612
2018-09-28T08:15:10.870Z,54612
2018-09-28T08:18:10.414Z,54612
2018-09-28T08:21:10.685Z,54612
2018-09-28T08:24:11.124Z,54612
2018-09-28T08:27:10.367Z,54038
2018-09-28T08:30:10.661Z,49775
2018-09-28T08:33:10.942Z,48243
2018-09-28T08:36:10.440Z,52010
2018-09-28T08:39:10.895Z,54612
2018-09-28T08:42:10.374Z,54612
2018-09-28T08:45:10.811Z,54612
2018-09-28T08:48:10.325Z,54612
2018-09-28T08:51:10.712Z,54612
2018-09-28T08:54:11.078Z,54612
2018-09-28T08:57:10.425Z,54612
2018-09-28T09:00:10.543Z,54612
2018-09-28T09:03:10.815Z,54612
2018-09-28T09:06:10.061Z,54612
2018-09-28T09:09:10.532Z,54612
2018-09-28T09:12:10.975Z,54612
2018-09-28T09:15:10.283Z,54612
2018-09-28T09:18:11.182Z,54612
2018-09-28T09:21:10.936Z,54612
2018-09-28T09:24:10.544Z,54612
2018-09-28T09:27:11.408Z,54612
2018-09-28T09:30:11.311Z,54612
2018-09-28T09:33:11.309Z,54612
2018-09-28T09:36:11.329Z,54612
2018-09-28T09:39:11.436Z,54612
2018-09-28T09:42:11.435Z,54612
2018-09-28T09:45:11.508Z,54612
2018-09-28T09:48:11.592Z,54612
2018-09-28T09:51:11.816Z,54612
2018-09-28T09:54:11.018Z,54612
2018-09-28T09:57:11.193Z,54612
2018-09-28T10:00:11.478Z,48867
2018-09-28T10:03:11.630Z,54612
2018-09-28T10:06:11.834Z,54612
2018-09-28T10:09:11.009Z,54612
2018-09-28T10:12:11.453Z,54612
2018-09-28T10:15:11.759Z,54612
2018-09-28T10:18:11.077Z,54612
2018-09-28T10:21:11.468Z,54612
2018-09-28T10:24:11.591Z,54612
2018-09-28T10:27:11.879Z,54612
2018-09-28T10:30:11.021Z,54612
2018-09-28T10:33:11.142Z,54612
2018-09-28T10:36:11.358Z,11937
2018-09-28T10:39:11.796Z,11653
2018-09-28T10:42:11.098Z,11730
2018-09-28T10:45:11.454Z,11756
2018-09-28T10:48:11.661Z,11643
2018-09-28T10:51:11.876Z,11490
2018-09-28T10:54:10.999Z,12078
2018-09-28T10:57:11.241Z,54612
2018-09-28T11:00:11.377Z,54612
2018-09-28T11:03:11.846Z,54612
2018-09-28T11:06:11.176Z,27413
2018-09-28T11:09:11.662Z,28482
2018-09-28T11:12:11.803Z,19286
2018-09-28T11:15:10.699Z,31124
2018-09-28T11:18:10.294Z,17914
2018-09-28T11:21:10.675Z,28905
2018-09-28T11:24:11.094Z,22051
2018-09-28T11:27:10.580Z,20592
2018-09-28T11:30:10.951Z,18848
2018-09-28T11:33:10.576Z,17605
2018-09-28T11:36:11.005Z,15780
2018-09-28T11:39:10.464Z,14764
2018-09-28T11:42:10.857Z,15172
2018-09-28T11:45:10.357Z,14570
2018-09-28T11:48:10.721Z,14478
2018-09-28T11:51:11.224Z,12641
2018-09-28T11:54:10.550Z,13644
2018-09-28T11:57:10.955Z,12123
2018-09-28T12:00:10.466Z,10726
2018-09-28T12:03:10.855Z,10823
2018-09-28T12:06:10.323Z,10625
2018-09-28T12:09:10.868Z,12813
2018-09-28T12:12:10.471Z,12802
2018-09-28T12:15:10.832Z,11156
2018-09-28T12:18:10.408Z,9601
2018-09-28T12:21:10.939Z,8270
2018-09-28T12:24:10.499Z,8418
2018-09-28T12:27:10.966Z,9671
2018-09-28T12:30:10.624Z,9150
2018-09-28T12:33:11.086Z,9252
2018-09-28T12:36:10.489Z,7965
2018-09-28T12:39:11.368Z,8720
2018-09-28T12:42:11.105Z,8873
2018-09-28T12:45:10.695Z,11205
2018-09-28T12:48:10.276Z,9988
2018-09-28T12:51:10.696Z,9826
2018-09-28T12:54:11.407Z,9636
2018-09-28T12:57:10.886Z,9213
2018-09-28T13:00:10.478Z,8464
2018-09-28T13:03:10.788Z,8075
2018-09-28T13:06:10.202Z,8178
2018-09-28T13:09:10.609Z,10311
2018-09-28T13:12:11.214Z,8732
2018-09-28T13:15:10.970Z,7683
2018-09-28T13:18:10.831Z,7236
2018-09-28T13:21:10.218Z,6888
2018-09-28T13:24:10.752Z,6644
2018-09-28T13:27:11.078Z,6315
2018-09-28T13:30:10.688Z,5794
2018-09-28T13:33:11.013Z,5732
2018-09-28T13:36:10.436Z,5612
2018-09-28T13:39:11.051Z,4738
2018-09-28T13:42:10.745Z,4327
2018-09-28T13:45:10.225Z,4471
2018-09-28T13:48:10.899Z,4398
2018-09-28T13:51:10.357Z,3948
2018-09-28T13:54:10.920Z,3348
2018-09-28T13:57:10.381Z,3101
2018-09-28T14:00:10.860Z,2708
2018-09-28T14:03:10.213Z,2528
2018-09-28T14:06:10.652Z,2341
2018-09-28T14:09:11.043Z,1970
2018-09-28T14:12:10.802Z,1788
2018-09-28T14:15:10.110Z,1510
2018-09-28T14:18:10.689Z,1339
2018-09-28T14:21:11.035Z,1247
2018-09-28T14:24:10.535Z,1030
2018-09-28T14:27:11.132Z,1024
2018-09-28T14:30:10.691Z,988
2018-09-28T14:33:11.064Z,1042
2018-09-28T14:36:10.684Z,1055
2018-09-28T14:39:11.027Z,1024
2018-09-28T14:42:10.539Z,871
2018-09-28T14:45:10.981Z,848
2018-09-28T14:48:10.582Z,909
2018-09-28T14:51:11.088Z,872
2018-09-28T14:54:10.708Z,692
2018-09-28T14:57:10.097Z,652
2018-09-28T15:00:10.559Z,748
2018-09-28T15:03:11.031Z,772
2018-09-28T15:06:10.442Z,793
2018-09-28T15:09:10.802Z,758
2018-09-28T15:12:10.265Z,692
2018-09-28T15:15:10.977Z,709
2018-09-28T15:18:10.515Z,734
2018-09-28T15:21:10.939Z,747
2018-09-28T15:24:10.525Z,878
2018-09-28T15:27:10.767Z,916
2018-09-28T15:30:11.361Z,715
2018-09-28T15:33:10.721Z,541
2018-09-28T15:36:11.185Z,461
2018-09-28T15:39:10.486Z,439
2018-09-28T15:42:10.807Z,409
2018-09-28T15:45:10.835Z,385
2018-09-28T15:48:10.252Z,303
2018-09-28T15:51:10.539Z,303
2018-09-28T15:54:10.904Z,343
2018-09-28T15:57:10.342Z,329
2018-09-28T16:00:10.796Z,302
2018-09-28T16:03:10.370Z,277
2018-09-28T16:06:10.607Z,332
2018-09-28T16:09:10.991Z,355
2018-09-28T16:12:10.602Z,411
2018-09-28T16:15:11.097Z,400
2018-09-28T16:18:10.570Z,338
2018-09-28T16:21:10.920Z,318
2018-09-28T16:24:10.213Z,281
2018-09-28T16:27:10.493Z,265
2018-09-28T16:30:10.917Z,294
2018-09-28T16:33:10.206Z,332
2018-09-28T16:36:10.923Z,288
2018-09-28T16:39:10.351Z,216
2018-09-28T16:42:10.682Z,167
2018-09-28T16:45:10.924Z,148
2018-09-28T16:48:10.103Z,125
2018-09-28T16:51:10.553Z,97
2018-09-28T16:54:10.921Z,73
2018-09-28T16:57:10.455Z,63
2018-09-28T17:00:10.770Z,57
2018-09-28T17:03:11.256Z,48
2018-09-28T17:06:10.759Z,41
2018-09-28T17:09:11.229Z,35
2018-09-28T17:12:10.727Z,32
2018-09-28T17:15:11.152Z,28
2018-09-28T17:18:10.744Z,19
2018-09-28T17:21:11.136Z,12
2018-09-28T17:24:10.522Z,10
2018-09-28T17:27:10.853Z,6
2018-09-28T17:30:10.409Z,3
2018-09-28T17:33:10.894Z,2
2018-09-28T17:36:10.281Z,1
2018-09-28T17:39:10.653Z,1
2018-09-28T17:42:10.870Z,0
2018-09-28T17:45:10.628Z,0
2018-09-28T17:48:11.085Z,0
2018-09-28T17:51:10.476Z,0
2018-09-28T17:54:10.666Z,0
2018-09-28T17:57:11.071Z,0
2018-09-28T18:00:10.615Z,0
2018-09-28T18:03:11.032Z,0
2018-09-28T18:06:10.456Z,0
2018-09-28T18:09:10.963Z,0
2018-09-28T18:12:10.394Z,0
2018-09-28T18:15:11.084Z,0
2018-09-28T18:18:10.500Z,0
2018-09-28T18:21:11.036Z,0
2018-09-28T18:24:10.321Z,0
2018-09-28T18:27:11.012Z,0
2018-09-28T18:30:10.683Z,0
2018-09-28T18:33:11.054Z,0
2018-09-28T18:36:10.467Z,0
2018-09-28T18:39:10.853Z,0
2018-09-28T18:42:10.689Z,0
2018-09-28T18:45:10.147Z,0
2018-09-28T18:48:10.445Z,0
2018-09-28T18:51:10.866Z,0
2018-09-28T18:54:10.311Z,0
2018-09-28T18:57:10.714Z,0
2018-09-28T19:00:11.037Z,0
2018-09-28T19:03:10.724Z,0
2018-09-28T19:06:10.506Z,0
2018-09-28T19:09:11.183Z,0
2018-09-28T19:12:10.729Z,0
2018-09-28T19:15:11.307Z,0
2018-09-28T19:18:11.069Z,0
2018-09-28T19:21:10.403Z,0
2018-09-28T19:24:10.638Z,0
2018-09-28T19:27:11.033Z,0
2018-09-28T19:30:10.321Z,0
2018-09-28T19:33:10.808Z,0
2018-09-28T19:36:10.359Z,0
2018-09-28T19:39:11.016Z,0
2018-09-28T19:42:10.549Z,0
2018-09-28T19:45:10.825Z,0
2018-09-28T19:48:10.276Z,0
2018-09-28T19:51:10.692Z,0
2018-09-28T19:54:10.955Z,0
2018-09-28T19:57:10.522Z,0
2018-09-28T20:00:10.967Z,0
2018-09-28T20:03:10.278Z,0
2018-09-28T20:06:10.979Z,0
2018-09-28T20:09:10.577Z,0
2018-09-28T20:12:10.965Z,0
2018-09-28T20:15:10.311Z,0
2018-09-28T20:18:10.744Z,0
2018-09-28T20:21:11.244Z,0
2018-09-28T20:24:10.918Z,0
2018-09-28T20:27:10.548Z,0
2018-09-28T20:30:11.004Z,0
2018-09-28T20:33:10.357Z,0
2018-09-28T20:36:10.830Z,0
2018-09-28T20:39:10.426Z,0
2018-09-28T20:42:11.090Z,0
2018-09-28T20:45:10.628Z,0
2018-09-28T20:48:11.042Z,0
2018-09-28T20:51:10.548Z,0
2018-09-28T20:54:10.997Z,0
2018-09-28T20:57:10.446Z,0
2018-09-28T21:00:10.918Z,0
2018-09-28T21:03:10.244Z,0
2018-09-28T21:06:10.704Z,0
2018-09-28T21:09:11.062Z,0
2018-09-28T21:12:10.848Z,0
2018-09-28T21:15:10.229Z,0
2018-09-28T21:18:10.685Z,0
2018-09-28T21:21:11.281Z,0
2018-09-28T21:24:10.832Z,0
2018-09-28T21:27:10.260Z,0
2018-09-28T21:30:10.760Z,0
2018-09-28T21:33:11.019Z,0
2018-09-28T21:36:10.529Z,0
2018-09-28T21:39:11.000Z,0
2018-09-28T21:42:10.614Z,0
2018-09-28T21:45:11.189Z,0
2018-09-28T21:48:10.470Z,0
2018-09-28T21:51:10.980Z,0
2018-09-28T21:54:10.277Z,0
2018-09-28T21:57:10.761Z,0
2018-09-28T22:00:11.153Z,0
2018-09-28T22:03:15.627Z,0
2018-09-28T22:06:10.833Z,0
2018-09-28T22:09:10.234Z,0
2018-09-28T22:12:10.603Z,0
2018-09-28T22:15:10.781Z,0
2018-09-28T22:18:10.175Z,0
2018-09-28T22:21:10.636Z,0
2018-09-28T22:24:11.314Z,0
2018-09-28T22:27:11.863Z,0
2018-09-28T22:30:10.237Z,0
2018-09-28T22:33:10.669Z,0
2018-09-28T22:36:11.047Z,0
2018-09-28T22:39:15.433Z,0
2018-09-28T22:42:11.791Z,0
2018-09-28T22:45:11.287Z,0
2018-09-28T22:48:10.645Z,0
2018-09-28T22:51:10.878Z,0
2018-09-28T22:54:11.956Z,0
2018-09-28T22:57:10.368Z,0
2018-09-28T23:00:10.747Z,0
2018-09-28T23:03:16.042Z,0
2018-09-28T23:06:11.558Z,0
2018-09-28T23:09:10.773Z,0
2018-09-28T23:12:10.048Z,0
2018-09-28T23:15:15.402Z,0
2018-09-28T23:18:11.860Z,0
2018-09-28T23:21:10.514Z,0
2018-09-28T23:24:11.891Z,0
2018-09-28T23:27:10.362Z,0
2018-09-28T23:30:11.720Z,0
2018-09-28T23:33:11.226Z,0
2018-09-28T23:36:15.636Z,0
2018-09-28T23:39:15.978Z,0
2018-09-28T23:42:10.689Z,0
2018-09-28T23:45:10.960Z,0
2018-09-28T23:48:10.178Z,0
2018-09-28T23:51:10.691Z,0
2018-09-28T23:54:10.841Z,0
2018-09-28T23:57:10.123Z,0
